sensor_id;sensor_type;location;lat;lon;timestamp;pressure;altitude;pressure_sealevel;temperature;humidity
23164;BME280;31429;42.674;23.350;2022-11-14T01:10:55;95812.16;;;3.60;100.00
23164;BME280;31429;42.674;23.350;2022-11-14T01:11:56;95665.63;;;2.33;100.00
23164;BME280;31429;42.674;23.350;2022-11-14T01:12:57;95604.94;;;2.16;100.00
23164;BME280;31429;42.674;23.350;2022-11-14T01:13:57;95697.09;;;2.79;100.00
23164;BME280;31429;42.674;23.350;2022-11-14T01:14:58;95654.84;;;2.49;100.00
23164;BME280;31429;42.674;23.350;2022-11-14T01:16:00;95853.47;;;3.63;100.00
23164;BME280;31429;42.674;23.350;2022-11-14T01:17:01;95869.41;;;3.53;100.00
23164;BME280;31429;42.674;23.350;2022-11-14T01:18:02;95754.41;;;2.86;100.00
23164;BME280;31429;42.674;23.350;2022-11-14T01:19:03;95555.81;;;1.69;100.00
23164;BME280;31429;42.674;23.350;2022-11-14T01:20:04;95714.78;;;2.82;100.00
23164;BME280;31429;42.674;23.350;2022-11-14T01:21:07;95855.28;;;3.87;100.00
23164;BME280;31429;42.674;23.350;2022-11-14T01:22:08;95811.31;;;3.64;100.00
23164;BME280;31429;42.674;23.350;2022-11-14T01:23:10;95740.94;;;2.90;100.00
23164;BME280;31429;42.674;23.350;2022-11-14T01:24:11;95564.22;;;1.71;100.00
23164;BME280;31429;42.674;23.350;2022-11-14T01:25:12;95744.28;;;2.86;100.00
23164;BME280;31429;42.674;23.350;2022-11-14T01:26:14;95545.50;;;1.45;100.00
23164;BME280;31429;42.674;23.350;2022-11-14T01:27:15;95841.25;;;3.03;100.00
23164;BME280;31429;42.674;23.350;2022-11-14T01:28:18;95550.59;;;1.51;100.00
23164;BME280;31429;42.674;23.350;2022-11-14T01:29:19;95735.66;;;2.60;100.00
23164;BME280;31429;42.674;23.350;2022-11-14T01:30:20;95645.19;;;2.01;100.00
23164;BME280;31429;42.674;23.350;2022-11-14T01:31:22;95722.91;;;2.43;100.00
23164;BME280;31429;42.674;23.350;2022-11-14T01:32:24;95563.78;;;1.24;100.00
23164;BME280;31429;42.674;23.350;2022-11-14T01:33:25;95672.13;;;2.08;100.00
23164;BME280;31429;42.674;23.350;2022-11-14T01:34:26;95645.84;;;1.85;100.00
23164;BME280;31429;42.674;23.350;2022-11-14T01:35:29;95725.44;;;2.45;100.00
23164;BME280;31429;42.674;23.350;2022-11-14T01:36:30;95850.66;;;3.22;100.00
23164;BME280;31429;42.674;23.350;2022-11-14T01:37:31;95847.31;;;3.29;100.00
23164;BME280;31429;42.674;23.350;2022-11-14T01:38:32;95608.72;;;1.67;100.00
23164;BME280;31429;42.674;23.350;2022-11-14T01:39:33;95597.13;;;1.83;100.00
23164;BME280;31429;42.674;23.350;2022-11-14T01:40:34;95729.06;;;2.74;100.00
23164;BME280;31429;42.674;23.350;2022-11-14T01:41:41;95731.56;;;2.74;100.00
23164;BME280;31429;42.674;23.350;2022-11-14T01:43:15;95548.28;;;1.72;100.00
23164;BME280;31429;42.674;23.350;2022-11-14T01:44:49;95834.81;;;3.44;100.00
23164;BME280;31429;42.674;23.350;2022-11-14T01:45:54;95634.31;;;2.07;100.00
23164;BME280;31429;42.674;23.350;2022-11-14T01:46:55;95863.38;;;3.31;100.00
23164;BME280;31429;42.674;23.350;2022-11-14T01:47:56;95626.53;;;1.86;100.00
23164;BME280;31429;42.674;23.350;2022-11-14T01:49:00;95705.97;;;2.31;100.00
23164;BME280;31429;42.674;23.350;2022-11-14T01:50:04;95716.94;;;2.35;100.00
23164;BME280;31429;42.674;23.350;2022-11-14T01:51:18;95573.22;;;1.45;100.00
23164;BME280;31429;42.674;23.350;2022-11-14T01:52:24;95579.84;;;1.35;100.00
23164;BME280;31429;42.674;23.350;2022-11-14T01:53:25;95678.66;;;1.87;100.00
23164;BME280;31429;42.674;23.350;2022-11-14T01:54:29;95726.88;;;2.18;100.00
23164;BME280;31429;42.674;23.350;2022-11-14T01:55:32;95531.75;;;1.14;100.00
23164;BME280;31429;42.674;23.350;2022-11-14T01:56:36;95578.31;;;1.49;100.00
23164;BME280;31429;42.674;23.350;2022-11-14T01:57:41;95717.84;;;2.42;100.00
23164;BME280;31429;42.674;23.350;2022-11-14T01:58:49;95848.88;;;3.12;100.00
23164;BME280;31429;42.674;23.350;2022-11-14T01:59:54;95564.56;;;1.20;100.00
23164;BME280;31429;42.674;23.350;2022-11-14T02:00:58;95516.69;;;1.17;100.00
23164;BME280;31429;42.674;23.350;2022-11-14T02:02:03;95788.81;;;2.76;100.00
23164;BME280;31429;42.674;23.350;2022-11-14T02:03:06;95846.97;;;2.87;100.00
23164;BME280;31429;42.674;23.350;2022-11-14T02:04:07;95739.75;;;2.47;100.00
23164;BME280;31429;42.674;23.350;2022-11-14T02:05:10;95847.13;;;3.07;100.00
23164;BME280;31429;42.674;23.350;2022-11-14T02:06:15;95600.50;;;1.88;100.00
23164;BME280;31429;42.674;23.350;2022-11-14T02:07:18;95616.56;;;1.98;100.00
23164;BME280;31429;42.674;23.350;2022-11-14T02:08:19;95777.22;;;3.01;100.00
23164;BME280;31429;42.674;23.350;2022-11-14T02:09:22;95540.78;;;1.78;100.00
23164;BME280;31429;42.674;23.350;2022-11-14T02:10:23;95800.31;;;3.53;100.00
23164;BME280;31429;42.674;23.350;2022-11-14T02:11:24;95614.34;;;2.34;100.00
23164;BME280;31429;42.674;23.350;2022-11-14T02:12:28;95844.91;;;3.44;100.00
23164;BME280;31429;42.674;23.350;2022-11-14T02:13:30;95591.38;;;1.98;100.00
23164;BME280;31429;42.674;23.350;2022-11-14T02:14:32;95807.66;;;3.16;100.00
23164;BME280;31429;42.674;23.350;2022-11-14T02:15:33;95763.59;;;2.79;100.00
23164;BME280;31429;42.674;23.350;2022-11-14T02:16:34;95599.63;;;1.83;100.00
23164;BME280;31429;42.674;23.350;2022-11-14T02:17:35;95787.25;;;2.89;100.00
23164;BME280;31429;42.674;23.350;2022-11-14T02:18:36;95700.91;;;2.30;100.00
23164;BME280;31429;42.674;23.350;2022-11-14T02:19:41;95616.16;;;1.57;100.00
23164;BME280;31429;42.674;23.350;2022-11-14T02:20:44;95671.84;;;1.78;100.00
23164;BME280;31429;42.674;23.350;2022-11-14T02:21:44;95750.66;;;2.43;100.00
23164;BME280;31429;42.674;23.350;2022-11-14T02:22:45;95541.00;;;1.13;100.00
23164;BME280;31429;42.674;23.350;2022-11-14T02:23:46;95731.56;;;2.72;100.00
23164;BME280;31429;42.674;23.350;2022-11-14T02:24:47;95572.66;;;1.73;100.00
23164;BME280;31429;42.674;23.350;2022-11-14T02:25:48;95593.78;;;1.90;100.00
23164;BME280;31429;42.674;23.350;2022-11-14T02:26:49;95635.28;;;2.22;100.00
23164;BME280;31429;42.674;23.350;2022-11-14T02:27:50;95595.72;;;2.15;100.00
23164;BME280;31429;42.674;23.350;2022-11-14T02:28:51;95698.09;;;2.98;100.00
23164;BME280;31429;42.674;23.350;2022-11-14T02:29:52;95685.34;;;2.84;100.00
23164;BME280;31429;42.674;23.350;2022-11-14T02:30:54;95694.63;;;2.89;100.00
23164;BME280;31429;42.674;23.350;2022-11-14T02:31:55;95582.31;;;2.22;100.00
23164;BME280;31429;42.674;23.350;2022-11-14T02:32:55;95467.50;;;1.52;100.00
23164;BME280;31429;42.674;23.350;2022-11-14T02:33:56;95563.56;;;1.93;100.00
23164;BME280;31429;42.674;23.350;2022-11-14T02:34:57;95837.19;;;3.23;100.00
23164;BME280;31429;42.674;23.350;2022-11-14T02:35:59;95767.91;;;2.91;100.00
23164;BME280;31429;42.674;23.350;2022-11-14T02:37:00;95676.03;;;2.74;100.00
23164;BME280;31429;42.674;23.350;2022-11-14T02:38:01;95775.63;;;3.15;100.00
23164;BME280;31429;42.674;23.350;2022-11-14T02:39:02;95583.03;;;2.06;100.00
23164;BME280;31429;42.674;23.350;2022-11-14T02:40:03;95705.41;;;2.63;100.00
23164;BME280;31429;42.674;23.350;2022-11-14T02:41:05;95797.34;;;2.90;100.00
23164;BME280;31429;42.674;23.350;2022-11-14T02:42:05;95630.69;;;1.81;100.00
23164;BME280;31429;42.674;23.350;2022-11-14T02:43:06;95728.00;;;2.49;100.00
23164;BME280;31429;42.674;23.350;2022-11-14T02:44:07;95700.03;;;2.23;100.00
23164;BME280;31429;42.674;23.350;2022-11-14T02:45:09;95654.25;;;1.81;100.00
23164;BME280;31429;42.674;23.350;2022-11-14T02:46:10;95743.84;;;2.35;100.00
23164;BME280;31429;42.674;23.350;2022-11-14T02:47:11;95619.63;;;1.66;100.00
23164;BME280;31429;42.674;23.350;2022-11-14T02:48:11;95709.03;;;2.00;100.00
23164;BME280;31429;42.674;23.350;2022-11-14T02:49:14;95707.50;;;2.14;100.00
23164;BME280;31429;42.674;23.350;2022-11-14T02:50:15;95787.00;;;2.62;100.00
23164;BME280;31429;42.674;23.350;2022-11-14T02:51:17;95628.00;;;1.61;100.00
23164;BME280;31429;42.674;23.350;2022-11-14T02:52:18;95562.97;;;1.28;100.00
23164;BME280;31429;42.674;23.350;2022-11-14T02:53:19;95546.09;;;1.18;100.00
23164;BME280;31429;42.674;23.350;2022-11-14T02:54:20;95702.59;;;2.31;100.00
23164;BME280;31429;42.674;23.350;2022-11-14T02:55:21;95606.28;;;1.77;100.00
23164;BME280;31429;42.674;23.350;2022-11-14T02:56:22;95667.28;;;2.31;100.00
23164;BME280;31429;42.674;23.350;2022-11-14T02:57:22;95811.09;;;3.23;100.00
23164;BME280;31429;42.674;23.350;2022-11-14T02:58:23;95544.00;;;1.59;100.00
23164;BME280;31429;42.674;23.350;2022-11-14T02:59:24;95812.06;;;3.43;100.00
23164;BME280;31429;42.674;23.350;2022-11-14T03:00:25;95704.69;;;2.80;100.00
23164;BME280;31429;42.674;23.350;2022-11-14T03:01:26;95504.59;;;1.70;100.00
23164;BME280;31429;42.674;23.350;2022-11-14T03:02:27;95689.56;;;2.83;100.00
23164;BME280;31429;42.674;23.350;2022-11-14T03:03:27;95750.38;;;3.14;100.00
23164;BME280;31429;42.674;23.350;2022-11-14T03:04:28;95672.44;;;2.45;100.00
23164;BME280;31429;42.674;23.350;2022-11-14T03:05:29;95825.34;;;3.15;100.00
23164;BME280;31429;42.674;23.350;2022-11-14T03:06:32;95643.50;;;2.02;100.00
23164;BME280;31429;42.674;23.350;2022-11-14T03:07:33;95661.31;;;2.21;100.00
23164;BME280;31429;42.674;23.350;2022-11-14T03:08:33;95603.84;;;1.84;100.00
23164;BME280;31429;42.674;23.350;2022-11-14T03:09:34;95711.97;;;2.43;100.00
23164;BME280;31429;42.674;23.350;2022-11-14T03:10:35;95798.22;;;2.94;100.00
23164;BME280;31429;42.674;23.350;2022-11-14T03:11:37;95798.22;;;2.94;100.00
23164;BME280;31429;42.674;23.350;2022-11-14T03:12:39;95610.50;;;1.79;100.00
23164;BME280;31429;42.674;23.350;2022-11-14T03:13:40;95703.56;;;2.44;100.00
23164;BME280;31429;42.674;23.350;2022-11-14T03:14:41;95579.47;;;1.82;100.00
23164;BME280;31429;42.674;23.350;2022-11-14T03:15:41;95787.31;;;3.01;100.00
23164;BME280;31429;42.674;23.350;2022-11-14T03:16:42;95559.00;;;1.51;100.00
23164;BME280;31429;42.674;23.350;2022-11-14T03:17:43;95662.00;;;2.01;100.00
23164;BME280;31429;42.674;23.350;2022-11-14T03:18:44;95510.81;;;1.13;100.00
23164;BME280;31429;42.674;23.350;2022-11-14T03:19:45;95807.47;;;2.94;100.00
23164;BME280;31429;42.674;23.350;2022-11-14T03:20:45;95761.66;;;2.53;100.00
23164;BME280;31429;42.674;23.350;2022-11-14T03:21:47;95738.22;;;2.64;100.00
23164;BME280;31429;42.674;23.350;2022-11-14T03:22:48;95591.22;;;1.81;100.00
23164;BME280;31429;42.674;23.350;2022-11-14T03:23:49;95646.84;;;2.01;100.00
23164;BME280;31429;42.674;23.350;2022-11-14T03:24:50;95735.66;;;2.60;100.00
23164;BME280;31429;42.674;23.350;2022-11-14T03:25:51;95669.78;;;2.28;100.00
23164;BME280;31429;42.674;23.350;2022-11-14T03:26:51;95798.31;;;3.06;100.00
23164;BME280;31429;42.674;23.350;2022-11-14T03:27:52;95537.16;;;1.47;100.00
23164;BME280;31429;42.674;23.350;2022-11-14T03:28:53;95570.00;;;1.58;100.00
23164;BME280;31429;42.674;23.350;2022-11-14T03:29:54;95685.13;;;2.49;100.00
23164;BME280;31429;42.674;23.350;2022-11-14T03:30:55;95569.16;;;1.56;100.00
23164;BME280;31429;42.674;23.350;2022-11-14T03:31:56;95703.50;;;2.39;100.00
23164;BME280;31429;42.674;23.350;2022-11-14T03:32:57;95576.84;;;1.72;100.00
23164;BME280;31429;42.674;23.350;2022-11-14T03:33:58;95665.72;;;2.45;100.00
23164;BME280;31429;42.674;23.350;2022-11-14T03:34:59;95722.47;;;2.99;100.00
23164;BME280;31429;42.674;23.350;2022-11-14T03:36:00;95727.56;;;3.05;100.00
23164;BME280;31429;42.674;23.350;2022-11-14T03:37:03;95825.59;;;3.56;100.00
23164;BME280;31429;42.674;23.350;2022-11-14T03:38:03;95514.06;;;1.98;100.00
23164;BME280;31429;42.674;23.350;2022-11-14T03:39:05;95594.16;;;2.36;100.00
23164;BME280;31429;42.674;23.350;2022-11-14T03:40:07;95706.53;;;3.03;100.00
23164;BME280;31429;42.674;23.350;2022-11-14T03:41:08;95565.47;;;2.21;100.00
23164;BME280;31429;42.674;23.350;2022-11-14T03:42:09;95782.66;;;3.59;100.00
23164;BME280;31429;42.674;23.350;2022-11-14T03:43:10;95569.47;;;1.92;100.00
23164;BME280;31429;42.674;23.350;2022-11-14T03:44:11;95658.47;;;2.94;100.00
23164;BME280;31429;42.674;23.350;2022-11-14T03:45:12;95701.56;;;3.21;100.00
23164;BME280;31429;42.674;23.350;2022-11-14T03:46:13;95721.00;;;3.28;100.00
23164;BME280;31429;42.674;23.350;2022-11-14T03:47:17;95746.38;;;3.47;100.00
23164;BME280;31429;42.674;23.350;2022-11-14T03:48:17;95776.78;;;3.63;100.00
23164;BME280;31429;42.674;23.350;2022-11-14T03:49:18;95634.00;;;2.80;100.00
23164;BME280;31429;42.674;23.350;2022-11-14T03:50:19;95512.50;;;2.18;100.00
23164;BME280;31429;42.674;23.350;2022-11-14T03:51:20;95512.56;;;2.30;100.00
23164;BME280;31429;42.674;23.350;2022-11-14T03:52:22;95581.69;;;2.61;100.00
23164;BME280;31429;42.674;23.350;2022-11-14T03:53:25;95547.84;;;2.26;100.00
23164;BME280;31429;42.674;23.350;2022-11-14T03:54:27;95466.19;;;2.04;100.00
23164;BME280;31429;42.674;23.350;2022-11-14T03:55:28;95542.88;;;2.37;100.00
23164;BME280;31429;42.674;23.350;2022-11-14T03:56:29;95663.78;;;3.42;100.00
23164;BME280;31429;42.674;23.350;2022-11-14T03:57:30;95619.00;;;3.12;100.00
23164;BME280;31429;42.674;23.350;2022-11-14T03:58:31;95605.47;;;2.95;100.00
23164;BME280;31429;42.674;23.350;2022-11-14T03:59:31;95656.19;;;3.43;100.00
23164;BME280;31429;42.674;23.350;2022-11-14T04:00:32;95644.38;;;3.36;100.00
23164;BME280;31429;42.674;23.350;2022-11-14T04:01:33;95765.16;;;3.99;100.00
23164;BME280;31429;42.674;23.350;2022-11-14T04:02:34;95737.19;;;3.69;100.00
23164;BME280;31429;42.674;23.350;2022-11-14T04:03:34;95744.78;;;3.63;100.00
23164;BME280;31429;42.674;23.350;2022-11-14T04:04:35;95550.44;;;2.37;100.00
23164;BME280;31429;42.674;23.350;2022-11-14T04:05:36;95569.91;;;2.59;100.00
23164;BME280;31429;42.674;23.350;2022-11-14T04:06:37;95764.25;;;3.88;100.00
23164;BME280;31429;42.674;23.350;2022-11-14T04:07:39;95667.97;;;3.38;100.00
23164;BME280;31429;42.674;23.350;2022-11-14T04:08:41;95556.50;;;2.67;100.00
23164;BME280;31429;42.674;23.350;2022-11-14T04:09:42;95623.97;;;2.94;100.00
23164;BME280;31429;42.674;23.350;2022-11-14T04:10:46;95697.53;;;3.53;100.00
23164;BME280;31429;42.674;23.350;2022-11-14T04:11:47;95607.19;;;3.05;100.00
23164;BME280;31429;42.674;23.350;2022-11-14T04:12:48;95635.06;;;3.23;100.00
23164;BME280;31429;42.674;23.350;2022-11-14T04:13:49;95582.72;;;2.89;100.00
23164;BME280;31429;42.674;23.350;2022-11-14T04:14:50;95754.16;;;3.91;100.00
23164;BME280;31429;42.674;23.350;2022-11-14T04:15:54;95669.59;;;3.23;100.00
23164;BME280;31429;42.674;23.350;2022-11-14T04:17:18;95731.22;;;3.51;100.00
23164;BME280;31429;42.674;23.350;2022-11-14T04:18:59;95509.03;;;2.03;100.00
23164;BME280;31429;42.674;23.350;2022-11-14T04:20:13;95499.69;;;1.88;100.00
23164;BME280;31429;42.674;23.350;2022-11-14T04:21:17;95547.88;;;2.29;100.00
23164;BME280;31429;42.674;23.350;2022-11-14T04:22:42;95595.16;;;2.62;100.00
23164;BME280;31429;42.674;23.350;2022-11-14T04:23:43;95772.63;;;3.75;100.00
23164;BME280;31429;42.674;23.350;2022-11-14T04:24:44;95743.94;;;3.66;100.00
23164;BME280;31429;42.674;23.350;2022-11-14T04:25:45;95770.13;;;3.84;100.00
23164;BME280;31429;42.674;23.350;2022-11-14T04:26:46;95761.69;;;3.79;100.00
23164;BME280;31429;42.674;23.350;2022-11-14T04:27:46;95743.91;;;3.60;100.00
23164;BME280;31429;42.674;23.350;2022-11-14T04:28:47;95771.75;;;3.70;100.00
23164;BME280;31429;42.674;23.350;2022-11-14T04:29:48;95756.66;;;3.82;100.00
23164;BME280;31429;42.674;23.350;2022-11-14T04:30:48;95756.63;;;3.84;100.00
23164;BME280;31429;42.674;23.350;2022-11-14T04:31:49;95765.09;;;3.83;100.00
23164;BME280;31429;42.674;23.350;2022-11-14T04:32:49;95759.97;;;3.74;100.00
23164;BME280;31429;42.674;23.350;2022-11-14T04:33:50;95762.50;;;3.74;100.00
23164;BME280;31429;42.674;23.350;2022-11-14T04:34:51;95755.75;;;3.68;100.00
23164;BME280;31429;42.674;23.350;2022-11-14T04:35:51;95761.66;;;3.70;100.00
23164;BME280;31429;42.674;23.350;2022-11-14T04:36:52;95756.56;;;3.67;100.00
23164;BME280;31429;42.674;23.350;2022-11-14T04:37:54;95765.00;;;3.65;100.00
23164;BME280;31429;42.674;23.350;2022-11-14T04:38:55;95764.16;;;3.70;100.00
23164;BME280;31429;42.674;23.350;2022-11-14T04:39:55;95739.72;;;3.68;100.00
23164;BME280;31429;42.674;23.350;2022-11-14T04:41:00;95740.59;;;3.74;100.00
23164;BME280;31429;42.674;23.350;2022-11-14T04:42:00;95760.03;;;3.86;100.00
23164;BME280;31429;42.674;23.350;2022-11-14T04:43:01;95760.84;;;3.82;100.00
23164;BME280;31429;42.674;23.350;2022-11-14T04:44:02;95757.47;;;3.80;100.00
23164;BME280;31429;42.674;23.350;2022-11-14T04:45:03;95757.44;;;3.75;100.00
23164;BME280;31429;42.674;23.350;2022-11-14T04:46:04;95763.34;;;3.73;100.00
23164;BME280;31429;42.674;23.350;2022-11-14T04:47:05;95757.47;;;3.78;100.00
23164;BME280;31429;42.674;23.350;2022-11-14T04:48:05;95736.31;;;3.64;100.00
23164;BME280;31429;42.674;23.350;2022-11-14T04:49:06;95732.13;;;3.65;100.00
23164;BME280;31429;42.674;23.350;2022-11-14T04:50:08;95731.25;;;3.58;100.00
23164;BME280;31429;42.674;23.350;2022-11-14T04:51:09;95729.56;;;3.54;100.00
23164;BME280;31429;42.674;23.350;2022-11-14T04:52:09;95756.59;;;3.72;100.00
23164;BME280;31429;42.674;23.350;2022-11-14T04:53:11;95758.25;;;3.67;100.00
23164;BME280;31429;42.674;23.350;2022-11-14T04:54:12;95756.50;;;3.54;100.00
23164;BME280;31429;42.674;23.350;2022-11-14T04:55:13;95743.03;;;3.58;100.00
23164;BME280;31429;42.674;23.350;2022-11-14T04:56:13;95753.19;;;3.64;100.00
23164;BME280;31429;42.674;23.350;2022-11-14T04:57:14;95758.22;;;3.55;100.00
23164;BME280;31429;42.674;23.350;2022-11-14T04:58:16;95742.09;;;3.39;100.00
23164;BME280;31429;42.674;23.350;2022-11-14T04:59:16;95756.44;;;3.41;100.00
23164;BME280;31429;42.674;23.350;2022-11-14T05:00:17;95747.09;;;3.30;100.00
23164;BME280;31429;42.674;23.350;2022-11-14T05:01:18;95763.16;;;3.41;100.00
23164;BME280;31429;42.674;23.350;2022-11-14T05:02:19;95758.97;;;3.44;100.00
23164;BME280;31429;42.674;23.350;2022-11-14T05:03:19;95760.69;;;3.47;100.00
23164;BME280;31429;42.674;23.350;2022-11-14T05:04:20;95760.69;;;3.48;100.00
23164;BME280;31429;42.674;23.350;2022-11-14T05:05:20;95759.00;;;3.47;100.00
23164;BME280;31429;42.674;23.350;2022-11-14T05:06:21;95761.47;;;3.38;100.00
23164;BME280;31429;42.674;23.350;2022-11-14T05:07:22;95750.47;;;3.30;100.00
23164;BME280;31429;42.674;23.350;2022-11-14T05:08:24;95754.72;;;3.36;100.00
23164;BME280;31429;42.674;23.350;2022-11-14T05:09:24;95740.34;;;3.24;100.00
23164;BME280;31429;42.674;23.350;2022-11-14T05:10:25;95764.03;;;3.40;100.00
23164;BME280;31429;42.674;23.350;2022-11-14T05:11:26;95763.16;;;3.38;100.00
23164;BME280;31429;42.674;23.350;2022-11-14T05:12:26;95766.53;;;3.37;100.00
23164;BME280;31429;42.674;23.350;2022-11-14T05:13:27;95763.97;;;3.32;100.00
23164;BME280;31429;42.674;23.350;2022-11-14T05:14:27;95767.28;;;3.27;100.00
23164;BME280;31429;42.674;23.350;2022-11-14T05:15:28;95748.66;;;3.08;100.00
23164;BME280;31429;42.674;23.350;2022-11-14T05:16:29;95774.81;;;3.21;100.00
23164;BME280;31429;42.674;23.350;2022-11-14T05:17:29;95768.94;;;3.22;100.00
23164;BME280;31429;42.674;23.350;2022-11-14T05:18:30;95763.94;;;3.26;100.00
23164;BME280;31429;42.674;23.350;2022-11-14T05:19:31;95771.56;;;3.35;100.00
23164;BME280;31429;42.674;23.350;2022-11-14T05:20:31;95772.41;;;3.31;100.00
23164;BME280;31429;42.674;23.350;2022-11-14T05:21:32;95753.03;;;3.36;100.00
23164;BME280;31429;42.674;23.350;2022-11-14T05:22:32;95769.97;;;3.53;100.00
23164;BME280;31429;42.674;23.350;2022-11-14T05:23:34;95770.03;;;3.60;100.00
23164;BME280;31429;42.674;23.350;2022-11-14T05:24:35;95774.25;;;3.64;100.00
23164;BME280;31429;42.674;23.350;2022-11-14T05:25:36;95778.50;;;3.68;100.00
23164;BME280;31429;42.674;23.350;2022-11-14T05:26:36;95778.50;;;3.68;100.00
23164;BME280;31429;42.674;23.350;2022-11-14T05:27:37;95759.88;;;3.56;100.00
23164;BME280;31429;42.674;23.350;2022-11-14T05:28:38;95775.13;;;3.68;100.00
23164;BME280;31429;42.674;23.350;2022-11-14T05:29:39;95784.38;;;3.63;100.00
23164;BME280;31429;42.674;23.350;2022-11-14T05:30:39;95773.41;;;3.62;100.00
23164;BME280;31429;42.674;23.350;2022-11-14T05:31:40;95758.22;;;3.61;100.00
23164;BME280;31429;42.674;23.350;2022-11-14T05:32:40;95747.19;;;3.40;100.00
23164;BME280;31429;42.674;23.350;2022-11-14T05:33:41;95775.00;;;3.46;100.00
23164;BME280;31429;42.674;23.350;2022-11-14T05:34:42;95780.81;;;3.35;100.00
23164;BME280;31429;42.674;23.350;2022-11-14T05:35:42;95776.63;;;3.38;100.00
23164;BME280;31429;42.674;23.350;2022-11-14T05:36:43;95783.31;;;3.26;100.00
23164;BME280;31429;42.674;23.350;2022-11-14T05:37:43;95776.63;;;3.34;100.00
23164;BME280;31429;42.674;23.350;2022-11-14T05:38:45;95747.91;;;3.23;100.00
23164;BME280;31429;42.674;23.350;2022-11-14T05:39:46;95776.69;;;3.47;100.00
23164;BME280;31429;42.674;23.350;2022-11-14T05:40:47;95777.59;;;3.54;100.00
23164;BME280;31429;42.674;23.350;2022-11-14T05:41:47;95785.13;;;3.53;100.00
23164;BME280;31429;42.674;23.350;2022-11-14T05:42:48;95780.16;;;3.65;100.00
23164;BME280;31429;42.674;23.350;2022-11-14T05:43:48;95763.28;;;3.62;100.00
23164;BME280;31429;42.674;23.350;2022-11-14T05:44:49;95787.78;;;3.74;100.00
23164;BME280;31429;42.674;23.350;2022-11-14T05:45:50;95757.41;;;3.65;100.00
23164;BME280;31429;42.674;23.350;2022-11-14T05:46:50;95787.75;;;3.66;100.00
23164;BME280;31429;42.674;23.350;2022-11-14T05:47:51;95769.09;;;3.43;100.00
23164;BME280;31429;42.674;23.350;2022-11-14T05:48:53;95786.00;;;3.56;100.00
23164;BME280;31429;42.674;23.350;2022-11-14T05:49:54;95792.81;;;3.63;100.00
23164;BME280;31429;42.674;23.350;2022-11-14T05:50:55;95747.09;;;3.30;100.00
23164;BME280;31429;42.674;23.350;2022-11-14T05:51:55;95782.63;;;3.54;100.00
23164;BME280;31429;42.674;23.350;2022-11-14T05:52:56;95794.47;;;3.64;100.00
23164;BME280;31429;42.674;23.350;2022-11-14T05:53:58;95789.41;;;3.61;100.00
23164;BME280;31429;42.674;23.350;2022-11-14T05:54:58;95791.03;;;3.48;100.00
23164;BME280;31429;42.674;23.350;2022-11-14T05:55:59;95792.72;;;3.48;100.00
23164;BME280;31429;42.674;23.350;2022-11-14T05:57:01;95775.81;;;3.39;100.00
23164;BME280;31429;42.674;23.350;2022-11-14T05:58:01;95787.69;;;3.56;100.00
23164;BME280;31429;42.674;23.350;2022-11-14T05:59:02;95768.16;;;3.26;100.00
23164;BME280;31429;42.674;23.350;2022-11-14T06:00:03;95768.16;;;3.29;100.00
23164;BME280;31429;42.674;23.350;2022-11-14T06:01:06;95786.78;;;3.43;100.00
23164;BME280;31429;42.674;23.350;2022-11-14T06:02:07;95778.41;;;3.48;100.00
23164;BME280;31429;42.674;23.350;2022-11-14T06:03:07;95791.88;;;3.51;100.00
23164;BME280;31429;42.674;23.350;2022-11-14T06:04:08;95789.34;;;3.49;100.00
23164;BME280;31429;42.674;23.350;2022-11-14T06:05:08;95796.13;;;3.56;100.00
23164;BME280;31429;42.674;23.350;2022-11-14T06:06:11;95758.78;;;3.13;100.00
23164;BME280;31429;42.674;23.350;2022-11-14T06:07:12;95796.84;;;3.37;100.00
23164;BME280;31429;42.674;23.350;2022-11-14T06:08:13;95798.56;;;3.42;100.00
23164;BME280;31429;42.674;23.350;2022-11-14T06:09:15;95802.03;;;3.58;100.00
23164;BME280;31429;42.674;23.350;2022-11-14T06:10:15;95798.66;;;3.61;100.00
23164;BME280;31429;42.674;23.350;2022-11-14T06:11:17;95781.75;;;3.47;100.00
23164;BME280;31429;42.674;23.350;2022-11-14T06:12:18;95804.56;;;3.61;100.00
23164;BME280;31429;42.674;23.350;2022-11-14T06:13:19;95795.31;;;3.62;100.00
23164;BME280;31429;42.674;23.350;2022-11-14T06:14:20;95801.16;;;3.53;100.00
23164;BME280;31429;42.674;23.350;2022-11-14T06:15:20;95803.75;;;3.64;100.00
23164;BME280;31429;42.674;23.350;2022-11-14T06:16:21;95810.50;;;3.65;100.00
23164;BME280;31429;42.674;23.350;2022-11-14T06:17:22;95814.69;;;3.64;100.00
23164;BME280;31429;42.674;23.350;2022-11-14T06:18:22;95794.47;;;3.63;100.00
23164;BME280;31429;42.674;23.350;2022-11-14T06:19:23;95795.34;;;3.72;100.00
23164;BME280;31429;42.674;23.350;2022-11-14T06:20:23;95809.81;;;3.91;100.00
23164;BME280;31429;42.674;23.350;2022-11-14T06:21:24;95813.13;;;3.89;100.00
23164;BME280;31429;42.674;23.350;2022-11-14T06:22:26;95814.81;;;3.84;100.00
23164;BME280;31429;42.674;23.350;2022-11-14T06:23:27;95790.28;;;3.69;100.00
23164;BME280;31429;42.674;23.350;2022-11-14T06:24:29;95804.69;;;3.79;100.00
23164;BME280;31429;42.674;23.350;2022-11-14T06:25:29;95818.19;;;3.89;100.00
23164;BME280;31429;42.674;23.350;2022-11-14T06:26:30;95788.59;;;3.70;100.00
23164;BME280;31429;42.674;23.350;2022-11-14T06:27:31;95814.78;;;3.79;100.00
23164;BME280;31429;42.674;23.350;2022-11-14T06:28:32;95813.13;;;3.83;100.00
23164;BME280;31429;42.674;23.350;2022-11-14T06:29:33;95812.25;;;3.81;100.00
23164;BME280;31429;42.674;23.350;2022-11-14T06:30:34;95784.41;;;3.69;100.00
23164;BME280;31429;42.674;23.350;2022-11-14T06:31:34;95794.53;;;3.69;100.00
23164;BME280;31429;42.674;23.350;2022-11-14T06:32:35;95798.81;;;3.92;100.00
23164;BME280;31429;42.674;23.350;2022-11-14T06:33:36;95809.00;;;4.00;100.00